sensor_id;sensor_type;location;lat;lon;timestamp;temperature;humidity
32600;DHT22;19277;51.778;7.912;2023-06-10T00:01:54;21.70;72.90
32600;DHT22;19277;51.778;7.912;2023-06-10T00:04:28;21.70;72.80
32600;DHT22;19277;51.778;7.912;2023-06-10T00:06:53;21.60;72.90
32600;DHT22;19277;51.778;7.912;2023-06-10T00:09:19;21.60;72.90
32600;DHT22;19277;51.778;7.912;2023-06-10T00:11:46;21.60;72.70
32600;DHT22;19277;51.778;7.912;2023-06-10T00:14:12;21.60;72.90
32600;DHT22;19277;51.778;7.912;2023-06-10T00:16:38;21.60;72.60
32600;DHT22;19277;51.778;7.912;2023-06-10T00:19:04;21.60;72.70
32600;DHT22;19277;51.778;7.912;2023-06-10T00:21:31;21.60;72.70
32600;DHT22;19277;51.778;7.912;2023-06-10T00:24:08;21.60;72.40
32600;DHT22;19277;51.778;7.912;2023-06-10T00:26:38;21.60;72.40
32600;DHT22;19277;51.778;7.912;2023-06-10T00:29:03;21.60;72.30
32600;DHT22;19277;51.778;7.912;2023-06-10T00:31:29;21.60;72.40
32600;DHT22;19277;51.778;7.912;2023-06-10T00:33:55;21.50;72.20
32600;DHT22;19277;51.778;7.912;2023-06-10T00:36:21;21.50;72.10
32600;DHT22;19277;51.778;7.912;2023-06-10T00:38:47;21.40;72.50
32600;DHT22;19277;51.778;7.912;2023-06-10T00:41:13;21.40;72.60
32600;DHT22;19277;51.778;7.912;2023-06-10T00:43:38;21.40;72.50
32600;DHT22;19277;51.778;7.912;2023-06-10T00:46:04;21.30;72.30
32600;DHT22;19277;51.778;7.912;2023-06-10T00:48:30;21.30;72.40
32600;DHT22;19277;51.778;7.912;2023-06-10T00:50:56;21.30;72.30
32600;DHT22;19277;51.778;7.912;2023-06-10T00:53:22;21.30;72.30
32600;DHT22;19277;51.778;7.912;2023-06-10T00:55:48;21.20;72.90
32600;DHT22;19277;51.778;7.912;2023-06-10T00:58:14;21.20;72.70
32600;DHT22;19277;51.778;7.912;2023-06-10T01:00:41;21.10;72.70
32600;DHT22;19277;51.778;7.912;2023-06-10T01:03:06;21.10;72.90
32600;DHT22;19277;51.778;7.912;2023-06-10T01:05:37;21.00;73.20
32600;DHT22;19277;51.778;7.912;2023-06-10T01:10:57;20.90;73.30
32600;DHT22;19277;51.778;7.912;2023-06-10T01:13:26;20.80;73.10
32600;DHT22;19277;51.778;7.912;2023-06-10T01:15:55;20.80;73.20
32600;DHT22;19277;51.778;7.912;2023-06-10T01:18:21;20.80;73.10
32600;DHT22;19277;51.778;7.912;2023-06-10T01:20:47;20.80;73.10
32600;DHT22;19277;51.778;7.912;2023-06-10T01:23:14;20.70;73.40
32600;DHT22;19277;51.778;7.912;2023-06-10T01:25:42;20.70;73.40
32600;DHT22;19277;51.778;7.912;2023-06-10T01:28:27;20.70;73.50
32600;DHT22;19277;51.778;7.912;2023-06-10T01:34:00;20.60;73.40
32600;DHT22;19277;51.778;7.912;2023-06-10T01:36:27;20.60;73.20
32600;DHT22;19277;51.778;7.912;2023-06-10T01:38:53;20.50;73.50
32600;DHT22;19277;51.778;7.912;2023-06-10T01:41:19;20.50;73.60
32600;DHT22;19277;51.778;7.912;2023-06-10T01:43:46;20.50;73.70
32600;DHT22;19277;51.778;7.912;2023-06-10T01:46:12;20.40;73.60
32600;DHT22;19277;51.778;7.912;2023-06-10T01:48:38;20.40;73.70
32600;DHT22;19277;51.778;7.912;2023-06-10T01:51:05;20.30;73.80
32600;DHT22;19277;51.778;7.912;2023-06-10T01:53:30;20.30;73.80
32600;DHT22;19277;51.778;7.912;2023-06-10T01:55:56;20.30;73.80
32600;DHT22;19277;51.778;7.912;2023-06-10T01:58:21;20.30;73.90
32600;DHT22;19277;51.778;7.912;2023-06-10T02:00:47;20.20;73.90
32600;DHT22;19277;51.778;7.912;2023-06-10T02:03:13;20.20;73.80
32600;DHT22;19277;51.778;7.912;2023-06-10T02:05:39;20.20;73.90
32600;DHT22;19277;51.778;7.912;2023-06-10T02:08:05;20.20;74.00
32600;DHT22;19277;51.778;7.912;2023-06-10T02:10:31;20.10;74.30
32600;DHT22;19277;51.778;7.912;2023-06-10T02:12:56;20.10;74.40
32600;DHT22;19277;51.778;7.912;2023-06-10T02:15:22;20.00;74.30
32600;DHT22;19277;51.778;7.912;2023-06-10T02:17:47;20.00;74.50
32600;DHT22;19277;51.778;7.912;2023-06-10T02:20:16;20.00;74.60
32600;DHT22;19277;51.778;7.912;2023-06-10T02:22:42;20.00;74.60
32600;DHT22;19277;51.778;7.912;2023-06-10T02:25:08;20.00;74.50
32600;DHT22;19277;51.778;7.912;2023-06-10T02:27:34;20.00;74.30
32600;DHT22;19277;51.778;7.912;2023-06-10T02:30:00;20.10;74.10
32600;DHT22;19277;51.778;7.912;2023-06-10T02:32:25;20.00;74.10
32600;DHT22;19277;51.778;7.912;2023-06-10T02:34:52;20.00;74.10
32600;DHT22;19277;51.778;7.912;2023-06-10T02:37:17;20.00;74.20
32600;DHT22;19277;51.778;7.912;2023-06-10T02:39:43;19.90;74.20
32600;DHT22;19277;51.778;7.912;2023-06-10T02:42:09;19.90;74.50
32600;DHT22;19277;51.778;7.912;2023-06-10T02:44:35;19.80;74.60
32600;DHT22;19277;51.778;7.912;2023-06-10T02:47:01;19.80;74.60
32600;DHT22;19277;51.778;7.912;2023-06-10T02:49:27;19.80;74.60
32600;DHT22;19277;51.778;7.912;2023-06-10T02:51:55;19.80;74.80
32600;DHT22;19277;51.778;7.912;2023-06-10T02:54:25;19.70;74.90
32600;DHT22;19277;51.778;7.912;2023-06-10T02:56:51;19.70;75.00
32600;DHT22;19277;51.778;7.912;2023-06-10T02:59:18;19.60;74.80
32600;DHT22;19277;51.778;7.912;2023-06-10T03:01:44;19.60;74.90
32600;DHT22;19277;51.778;7.912;2023-06-10T03:04:09;19.60;74.60
32600;DHT22;19277;51.778;7.912;2023-06-10T03:06:38;19.60;74.70
32600;DHT22;19277;51.778;7.912;2023-06-10T03:09:04;19.50;75.00
32600;DHT22;19277;51.778;7.912;2023-06-10T03:11:30;19.40;75.10
32600;DHT22;19277;51.778;7.912;2023-06-10T03:13:56;19.40;75.10
32600;DHT22;19277;51.778;7.912;2023-06-10T03:16:22;19.30;75.30
32600;DHT22;19277;51.778;7.912;2023-06-10T03:18:48;19.30;75.20
32600;DHT22;19277;51.778;7.912;2023-06-10T03:21:14;19.30;75.30
32600;DHT22;19277;51.778;7.912;2023-06-10T03:23:40;19.30;75.00
32600;DHT22;19277;51.778;7.912;2023-06-10T03:26:05;19.30;74.60
32600;DHT22;19277;51.778;7.912;2023-06-10T03:28:31;19.30;74.50
32600;DHT22;19277;51.778;7.912;2023-06-10T03:30:57;19.40;74.20
32600;DHT22;19277;51.778;7.912;2023-06-10T03:33:22;19.50;74.10
32600;DHT22;19277;51.778;7.912;2023-06-10T03:35:48;19.50;73.70
32600;DHT22;19277;51.778;7.912;2023-06-10T03:38:14;19.50;73.60
32600;DHT22;19277;51.778;7.912;2023-06-10T03:40:40;19.50;73.70
32600;DHT22;19277;51.778;7.912;2023-06-10T03:43:05;19.50;73.70
32600;DHT22;19277;51.778;7.912;2023-06-10T03:45:31;19.50;73.50
32600;DHT22;19277;51.778;7.912;2023-06-10T03:47:57;19.50;73.50
32600;DHT22;19277;51.778;7.912;2023-06-10T03:50:23;19.50;73.50
32600;DHT22;19277;51.778;7.912;2023-06-10T03:52:50;19.60;73.50
32600;DHT22;19277;51.778;7.912;2023-06-10T03:55:16;19.60;73.20
32600;DHT22;19277;51.778;7.912;2023-06-10T03:57:42;19.60;73.30
32600;DHT22;19277;51.778;7.912;2023-06-10T04:00:08;19.60;73.50
32600;DHT22;19277;51.778;7.912;2023-06-10T04:02:37;19.60;73.30
32600;DHT22;19277;51.778;7.912;2023-06-10T04:05:02;19.60;73.30
32600;DHT22;19277;51.778;7.912;2023-06-10T04:07:28;19.60;73.50
32600;DHT22;19277;51.778;7.912;2023-06-10T04:09:54;19.70;73.60
32600;DHT22;19277;51.778;7.912;2023-06-10T04:12:19;19.70;73.80
32600;DHT22;19277;51.778;7.912;2023-06-10T04:14:45;19.70;73.20
32600;DHT22;19277;51.778;7.912;2023-06-10T04:17:10;19.80;73.10
32600;DHT22;19277;51.778;7.912;2023-06-10T04:19:36;19.80;73.20
32600;DHT22;19277;51.778;7.912;2023-06-10T04:22:02;19.80;73.10
32600;DHT22;19277;51.778;7.912;2023-06-10T04:24:29;19.90;72.60
32600;DHT22;19277;51.778;7.912;2023-06-10T04:26:54;19.90;72.40
32600;DHT22;19277;51.778;7.912;2023-06-10T04:29:20;20.00;72.60
32600;DHT22;19277;51.778;7.912;2023-06-10T04:31:45;20.00;72.20
32600;DHT22;19277;51.778;7.912;2023-06-10T04:34:12;20.10;72.20
32600;DHT22;19277;51.778;7.912;2023-06-10T04:36:38;20.20;71.70
32600;DHT22;19277;51.778;7.912;2023-06-10T04:39:03;20.30;71.60
32600;DHT22;19277;51.778;7.912;2023-06-10T04:41:31;20.30;71.30
32600;DHT22;19277;51.778;7.912;2023-06-10T04:43:56;20.40;71.40
32600;DHT22;19277;51.778;7.912;2023-06-10T04:46:23;20.40;71.30
32600;DHT22;19277;51.778;7.912;2023-06-10T04:48:48;20.40;71.60
32600;DHT22;19277;51.778;7.912;2023-06-10T04:51:14;20.50;71.20
32600;DHT22;19277;51.778;7.912;2023-06-10T04:53:39;20.60;71.20
32600;DHT22;19277;51.778;7.912;2023-06-10T04:56:05;20.70;70.80
32600;DHT22;19277;51.778;7.912;2023-06-10T04:58:33;20.80;70.80
32600;DHT22;19277;51.778;7.912;2023-06-10T05:00:58;20.80;70.70
32600;DHT22;19277;51.778;7.912;2023-06-10T05:03:25;20.90;70.90
32600;DHT22;19277;51.778;7.912;2023-06-10T05:05:50;21.00;70.30
32600;DHT22;19277;51.778;7.912;2023-06-10T05:08:16;21.00;70.10
32600;DHT22;19277;51.778;7.912;2023-06-10T05:10:41;21.10;70.40
32600;DHT22;19277;51.778;7.912;2023-06-10T05:13:07;21.10;70.10
32600;DHT22;19277;51.778;7.912;2023-06-10T05:15:33;21.20;69.90
32600;DHT22;19277;51.778;7.912;2023-06-10T05:17:58;21.20;69.90
32600;DHT22;19277;51.778;7.912;2023-06-10T05:20:24;21.30;69.60
32600;DHT22;19277;51.778;7.912;2023-06-10T05:22:50;21.40;69.20
32600;DHT22;19277;51.778;7.912;2023-06-10T05:25:16;21.60;68.70
32600;DHT22;19277;51.778;7.912;2023-06-10T05:27:42;21.60;68.50
32600;DHT22;19277;51.778;7.912;2023-06-10T05:30:09;21.70;68.40
32600;DHT22;19277;51.778;7.912;2023-06-10T05:32:35;21.70;67.90
32600;DHT22;19277;51.778;7.912;2023-06-10T05:35:01;21.80;68.20
32600;DHT22;19277;51.778;7.912;2023-06-10T05:37:27;21.90;68.10
32600;DHT22;19277;51.778;7.912;2023-06-10T05:39:52;21.90;67.90
32600;DHT22;19277;51.778;7.912;2023-06-10T05:42:18;22.00;67.80
32600;DHT22;19277;51.778;7.912;2023-06-10T05:44:43;22.00;68.10
32600;DHT22;19277;51.778;7.912;2023-06-10T05:47:09;22.10;68.30
32600;DHT22;19277;51.778;7.912;2023-06-10T05:49:34;22.10;67.80
32600;DHT22;19277;51.778;7.912;2023-06-10T05:52:00;22.10;68.20
32600;DHT22;19277;51.778;7.912;2023-06-10T05:54:26;22.20;68.10
32600;DHT22;19277;51.778;7.912;2023-06-10T05:56:52;22.20;67.90
32600;DHT22;19277;51.778;7.912;2023-06-10T05:59:17;22.30;67.70
32600;DHT22;19277;51.778;7.912;2023-06-10T06:01:43;22.40;68.30
32600;DHT22;19277;51.778;7.912;2023-06-10T06:04:08;22.40;68.30
32600;DHT22;19277;51.778;7.912;2023-06-10T06:06:35;22.50;68.20
32600;DHT22;19277;51.778;7.912;2023-06-10T06:09:01;22.60;67.80
32600;DHT22;19277;51.778;7.912;2023-06-10T06:11:26;22.70;67.80
32600;DHT22;19277;51.778;7.912;2023-06-10T06:13:52;22.80;67.70
32600;DHT22;19277;51.778;7.912;2023-06-10T06:16:18;22.90;67.60
32600;DHT22;19277;51.778;7.912;2023-06-10T06:18:43;23.00;68.10
32600;DHT22;19277;51.778;7.912;2023-06-10T06:21:09;23.00;67.10
32600;DHT22;19277;51.778;7.912;2023-06-10T06:23:35;23.10;66.90
32600;DHT22;19277;51.778;7.912;2023-06-10T06:26:00;23.20;66.40
32600;DHT22;19277;51.778;7.912;2023-06-10T06:28:26;23.20;66.00
32600;DHT22;19277;51.778;7.912;2023-06-10T06:30:55;23.30;66.20
32600;DHT22;19277;51.778;7.912;2023-06-10T06:33:21;23.40;66.60
32600;DHT22;19277;51.778;7.912;2023-06-10T06:35:46;23.40;65.90
32600;DHT22;19277;51.778;7.912;2023-06-10T06:38:12;23.60;65.40
32600;DHT22;19277;51.778;7.912;2023-06-10T06:40:38;23.70;65.50
32600;DHT22;19277;51.778;7.912;2023-06-10T06:43:03;23.80;65.10
32600;DHT22;19277;51.778;7.912;2023-06-10T06:45:29;23.80;64.70
32600;DHT22;19277;51.778;7.912;2023-06-10T06:47:54;23.80;64.00
32600;DHT22;19277;51.778;7.912;2023-06-10T06:50:21;23.90;63.90
32600;DHT22;19277;51.778;7.912;2023-06-10T06:52:47;23.90;64.10
32600;DHT22;19277;51.778;7.912;2023-06-10T06:55:12;24.00;62.90
32600;DHT22;19277;51.778;7.912;2023-06-10T06:57:38;24.00;64.40
32600;DHT22;19277;51.778;7.912;2023-06-10T07:00:04;24.10;63.90
32600;DHT22;19277;51.778;7.912;2023-06-10T07:02:30;24.00;65.00
32600;DHT22;19277;51.778;7.912;2023-06-10T07:04:57;23.90;65.40
32600;DHT22;19277;51.778;7.912;2023-06-10T07:07:24;23.80;65.80
32600;DHT22;19277;51.778;7.912;2023-06-10T07:09:51;23.70;66.20
32600;DHT22;19277;51.778;7.912;2023-06-10T07:12:18;23.60;66.60
32600;DHT22;19277;51.778;7.912;2023-06-10T07:14:44;23.50;66.90
32600;DHT22;19277;51.778;7.912;2023-06-10T07:17:12;23.50;67.20
32600;DHT22;19277;51.778;7.912;2023-06-10T07:19:39;23.40;67.30
32600;DHT22;19277;51.778;7.912;2023-06-10T07:22:05;23.40;67.50
32600;DHT22;19277;51.778;7.912;2023-06-10T07:24:32;23.40;67.60
32600;DHT22;19277;51.778;7.912;2023-06-10T07:26:59;23.40;68.30
32600;DHT22;19277;51.778;7.912;2023-06-10T07:29:25;23.40;67.90
32600;DHT22;19277;51.778;7.912;2023-06-10T07:31:52;23.40;68.00
32600;DHT22;19277;51.778;7.912;2023-06-10T07:34:19;23.40;68.00
32600;DHT22;19277;51.778;7.912;2023-06-10T07:36:45;23.40;68.10
32600;DHT22;19277;51.778;7.912;2023-06-10T07:39:11;23.40;68.20
32600;DHT22;19277;51.778;7.912;2023-06-10T07:41:38;23.40;68.20
32600;DHT22;19277;51.778;7.912;2023-06-10T07:44:04;23.50;68.30
32600;DHT22;19277;51.778;7.912;2023-06-10T07:46:31;23.50;68.50
32600;DHT22;19277;51.778;7.912;2023-06-10T07:48:58;23.50;68.60
32600;DHT22;19277;51.778;7.912;2023-06-10T07:51:24;23.50;68.60
32600;DHT22;19277;51.778;7.912;2023-06-10T07:53:50;23.50;68.80
32600;DHT22;19277;51.778;7.912;2023-06-10T07:56:17;23.50;68.90
32600;DHT22;19277;51.778;7.912;2023-06-10T07:58:43;23.50;68.90
32600;DHT22;19277;51.778;7.912;2023-06-10T08:01:10;23.50;69.10
32600;DHT22;19277;51.778;7.912;2023-06-10T08:03:36;23.50;69.20
32600;DHT22;19277;51.778;7.912;2023-06-10T08:06:03;23.60;69.90
32600;DHT22;19277;51.778;7.912;2023-06-10T08:08:29;23.60;69.40
32600;DHT22;19277;51.778;7.912;2023-06-10T08:10:55;23.60;69.40
32600;DHT22;19277;51.778;7.912;2023-06-10T08:13:22;23.60;69.40
32600;DHT22;19277;51.778;7.912;2023-06-10T08:15:48;23.60;69.50
32600;DHT22;19277;51.778;7.912;2023-06-10T08:18:17;23.60;69.50
32600;DHT22;19277;51.778;7.912;2023-06-10T08:20:43;23.60;69.60
32600;DHT22;19277;51.778;7.912;2023-06-10T08:23:09;23.60;69.60
32600;DHT22;19277;51.778;7.912;2023-06-10T08:25:36;23.60;69.70
32600;DHT22;19277;51.778;7.912;2023-06-10T08:28:02;23.70;69.80
32600;DHT22;19277;51.778;7.912;2023-06-10T08:30:28;23.70;69.80
32600;DHT22;19277;51.778;7.912;2023-06-10T08:32:54;23.70;69.90
32600;DHT22;19277;51.778;7.912;2023-06-10T08:35:21;23.70;69.90
32600;DHT22;19277;51.778;7.912;2023-06-10T08:37:47;23.70;69.80
32600;DHT22;19277;51.778;7.912;2023-06-10T08:40:13;23.70;69.80
32600;DHT22;19277;51.778;7.912;2023-06-10T08:42:44;23.70;69.80
32600;DHT22;19277;51.778;7.912;2023-06-10T08:45:16;23.70;69.80
32600;DHT22;19277;51.778;7.912;2023-06-10T08:47:45;23.70;69.70
32600;DHT22;19277;51.778;7.912;2023-06-10T08:50:11;23.80;69.80
32600;DHT22;19277;51.778;7.912;2023-06-10T08:52:40;23.80;69.70
32600;DHT22;19277;51.778;7.912;2023-06-10T08:55:13;23.80;69.60
32600;DHT22;19277;51.778;7.912;2023-06-10T08:57:41;23.70;69.60
32600;DHT22;19277;51.778;7.912;2023-06-10T09:00:08;23.80;69.60
32600;DHT22;19277;51.778;7.912;2023-06-10T09:02:34;23.80;69.50
32600;DHT22;19277;51.778;7.912;2023-06-10T09:05:01;23.80;69.50
32600;DHT22;19277;51.778;7.912;2023-06-10T09:07:27;23.80;69.50
32600;DHT22;19277;51.778;7.912;2023-06-10T09:09:57;23.80;69.50
32600;DHT22;19277;51.778;7.912;2023-06-10T09:12:23;23.80;69.40
32600;DHT22;19277;51.778;7.912;2023-06-10T09:14:48;23.80;69.40
32600;DHT22;19277;51.778;7.912;2023-06-10T09:17:14;23.80;69.40
32600;DHT22;19277;51.778;7.912;2023-06-10T09:19:40;23.80;69.40
32600;DHT22;19277;51.778;7.912;2023-06-10T09:22:07;23.80;69.30
32600;DHT22;19277;51.778;7.912;2023-06-10T09:24:33;23.80;69.30
32600;DHT22;19277;51.778;7.912;2023-06-10T09:27:06;23.80;69.30
32600;DHT22;19277;51.778;7.912;2023-06-10T09:29:46;23.80;69.30
32600;DHT22;19277;51.778;7.912;2023-06-10T09:32:12;23.80;69.30
32600;DHT22;19277;51.778;7.912;2023-06-10T09:34:39;23.80;69.20
32600;DHT22;19277;51.778;7.912;2023-06-10T09:37:05;23.80;69.20
32600;DHT22;19277;51.778;7.912;2023-06-10T09:39:31;23.80;69.20
32600;DHT22;19277;51.778;7.912;2023-06-10T09:41:57;23.80;69.10
32600;DHT22;19277;51.778;7.912;2023-06-10T09:44:23;23.90;69.20
32600;DHT22;19277;51.778;7.912;2023-06-10T09:46:50;23.90;69.20
32600;DHT22;19277;51.778;7.912;2023-06-10T09:49:17;23.90;69.20
32600;DHT22;19277;51.778;7.912;2023-06-10T09:51:53;23.90;69.20
32600;DHT22;19277;51.778;7.912;2023-06-10T09:54:20;23.90;69.20
32600;DHT22;19277;51.778;7.912;2023-06-10T09:56:51;23.90;69.20
32600;DHT22;19277;51.778;7.912;2023-06-10T09:59:28;23.90;69.10
32600;DHT22;19277;51.778;7.912;2023-06-10T10:01:55;23.90;69.10
32600;DHT22;19277;51.778;7.912;2023-06-10T10:04:24;23.90;69.10
32600;DHT22;19277;51.778;7.912;2023-06-10T10:06:50;23.90;69.10
32600;DHT22;19277;51.778;7.912;2023-06-10T10:09:16;23.90;69.10
32600;DHT22;19277;51.778;7.912;2023-06-10T10:11:43;23.90;69.10
32600;DHT22;19277;51.778;7.912;2023-06-10T10:14:09;23.90;69.10
32600;DHT22;19277;51.778;7.912;2023-06-10T10:16:40;23.90;69.10
32600;DHT22;19277;51.778;7.912;2023-06-10T10:19:19;23.90;69.10
32600;DHT22;19277;51.778;7.912;2023-06-10T10:21:53;23.90;69.10
32600;DHT22;19277;51.778;7.912;2023-06-10T10:24:21;23.90;69.00
32600;DHT22;19277;51.778;7.912;2023-06-10T10:26:50;23.90;69.00
32600;DHT22;19277;51.778;7.912;2023-06-10T10:29:31;24.00;69.10
32600;DHT22;19277;51.778;7.912;2023-06-10T10:31:59;24.00;69.10
32600;DHT22;19277;51.778;7.912;2023-06-10T10:34:48;24.00;69.10
32600;DHT22;19277;51.778;7.912;2023-06-10T10:37:14;24.00;69.10
32600;DHT22;19277;51.778;7.912;2023-06-10T10:39:40;24.00;69.10
32600;DHT22;19277;51.778;7.912;2023-06-10T10:42:07;24.00;69.10
32600;DHT22;19277;51.778;7.912;2023-06-10T10:44:39;24.00;69.00
32600;DHT22;19277;51.778;7.912;2023-06-10T10:47:07;24.00;69.00
32600;DHT22;19277;51.778;7.912;2023-06-10T10:49:33;24.00;69.00
32600;DHT22;19277;51.778;7.912;2023-06-10T10:52:01;24.00;69.00
32600;DHT22;19277;51.778;7.912;2023-06-10T10:54:34;24.00;69.00
32600;DHT22;19277;51.778;7.912;2023-06-10T10:57:10;24.10;69.00
32600;DHT22;19277;51.778;7.912;2023-06-10T10:59:46;24.00;69.00
32600;DHT22;19277;51.778;7.912;2023-06-10T11:02:19;24.10;69.00
32600;DHT22;19277;51.778;7.912;2023-06-10T11:04:56;24.10;69.00
32600;DHT22;19277;51.778;7.912;2023-06-10T11:07:24;24.10;69.00
32600;DHT22;19277;51.778;7.912;2023-06-10T11:10:04;24.10;69.00
32600;DHT22;19277;51.778;7.912;2023-06-10T11:15:26;24.10;69.00
32600;DHT22;19277;51.778;7.912;2023-06-10T11:26:12;24.10;68.90
32600;DHT22;19277;51.778;7.912;2023-06-10T11:28:39;24.10;68.90
32600;DHT22;19277;51.778;7.912;2023-06-10T11:31:05;24.20;69.00
32600;DHT22;19277;51.778;7.912;2023-06-10T11:33:31;24.10;68.90
32600;DHT22;19277;51.778;7.912;2023-06-10T11:35:56;24.20;68.90
32600;DHT22;19277;51.778;7.912;2023-06-10T11:38:24;24.20;68.90
32600;DHT22;19277;51.778;7.912;2023-06-10T11:40:50;24.20;68.90
32600;DHT22;19277;51.778;7.912;2023-06-10T11:43:19;24.20;68.90
32600;DHT22;19277;51.778;7.912;2023-06-10T11:45:45;24.20;68.90
32600;DHT22;19277;51.778;7.912;2023-06-10T11:48:11;24.20;68.90
32600;DHT22;19277;51.778;7.912;2023-06-10T11:50:37;24.20;68.90
32600;DHT22;19277;51.778;7.912;2023-06-10T11:53:03;24.20;68.80
32600;DHT22;19277;51.778;7.912;2023-06-10T11:55:49;24.20;68.80
32600;DHT22;19277;51.778;7.912;2023-06-10T11:58:17;24.20;68.80
32600;DHT22;19277;51.778;7.912;2023-06-10T12:00:49;24.20;68.80
32600;DHT22;19277;51.778;7.912;2023-06-10T12:03:16;24.20;68.80
32600;DHT22;19277;51.778;7.912;2023-06-10T12:06:04;24.20;68.80
32600;DHT22;19277;51.778;7.912;2023-06-10T12:08:31;24.20;68.80
32600;DHT22;19277;51.778;7.912;2023-06-10T12:10:58;24.20;68.70
32600;DHT22;19277;51.778;7.912;2023-06-10T12:13:26;24.20;68.80
32600;DHT22;19277;51.778;7.912;2023-06-10T12:15:53;24.20;68.70
32600;DHT22;19277;51.778;7.912;2023-06-10T12:18:19;24.20;68.70
32600;DHT22;19277;51.778;7.912;2023-06-10T12:20:46;24.30;68.80
32600;DHT22;19277;51.778;7.912;2023-06-10T12:23:12;24.30;68.80
32600;DHT22;19277;51.778;7.912;2023-06-10T12:25:39;24.30;68.70
32600;DHT22;19277;51.778;7.912;2023-06-10T12:28:05;24.30;68.80
32600;DHT22;19277;51.778;7.912;2023-06-10T12:30:34;24.30;68.80
32600;DHT22;19277;51.778;7.912;2023-06-10T12:33:00;24.30;68.70
32600;DHT22;19277;51.778;7.912;2023-06-10T12:35:26;24.30;68.70
32600;DHT22;19277;51.778;7.912;2023-06-10T12:38:05;24.30;68.70
32600;DHT22;19277;51.778;7.912;2023-06-10T12:40:38;24.30;68.70
32600;DHT22;19277;51.778;7.912;2023-06-10T12:43:07;24.30;68.70
32600;DHT22;19277;51.778;7.912;2023-06-10T12:45:34;24.30;68.70
32600;DHT22;19277;51.778;7.912;2023-06-10T12:48:21;24.40;68.80
32600;DHT22;19277;51.778;7.912;2023-06-10T12:50:53;24.40;68.90
32600;DHT22;19277;51.778;7.912;2023-06-10T12:53:20;24.40;69.20
32600;DHT22;19277;51.778;7.912;2023-06-10T12:55:46;24.40;69.30
32600;DHT22;19277;51.778;7.912;2023-06-10T12:58:13;24.40;69.40
32600;DHT22;19277;51.778;7.912;2023-06-10T13:00:39;24.40;69.50
32600;DHT22;19277;51.778;7.912;2023-06-10T13:03:05;24.40;69.80
32600;DHT22;19277;51.778;7.912;2023-06-10T13:05:32;24.50;69.80
32600;DHT22;19277;51.778;7.912;2023-06-10T13:07:58;24.50;69.90
32600;DHT22;19277;51.778;7.912;2023-06-10T13:10:24;24.50;70.10
32600;DHT22;19277;51.778;7.912;2023-06-10T13:12:51;24.50;70.20
32600;DHT22;19277;51.778;7.912;2023-06-10T13:15:17;24.60;70.20
32600;DHT22;19277;51.778;7.912;2023-06-10T13:17:44;24.60;70.60
32600;DHT22;19277;51.778;7.912;2023-06-10T13:20:11;24.60;70.30
32600;DHT22;19277;51.778;7.912;2023-06-10T13:22:37;24.60;70.60
32600;DHT22;19277;51.778;7.912;2023-06-10T13:25:03;24.60;70.40
32600;DHT22;19277;51.778;7.912;2023-06-10T13:27:29;24.60;70.30
32600;DHT22;19277;51.778;7.912;2023-06-10T13:29:55;24.60;70.60
32600;DHT22;19277;51.778;7.912;2023-06-10T13:32:21;24.60;70.70
32600;DHT22;19277;51.778;7.912;2023-06-10T13:34:46;24.60;70.60
32600;DHT22;19277;51.778;7.912;2023-06-10T13:37:12;24.60;70.70
32600;DHT22;19277;51.778;7.912;2023-06-10T13:39:38;24.70;71.10
32600;DHT22;19277;51.778;7.912;2023-06-10T13:42:05;24.70;70.90
32600;DHT22;19277;51.778;7.912;2023-06-10T13:44:31;24.70;70.90
32600;DHT22;19277;51.778;7.912;2023-06-10T13:46:59;24.70;71.20
32600;DHT22;19277;51.778;7.912;2023-06-10T13:49:25;24.70;71.10
32600;DHT22;19277;51.778;7.912;2023-06-10T13:51:50;24.70;71.10
32600;DHT22;19277;51.778;7.912;2023-06-10T13:54:16;24.70;71.00
32600;DHT22;19277;51.778;7.912;2023-06-10T13:56:41;24.70;71.30
32600;DHT22;19277;51.778;7.912;2023-06-10T13:59:07;24.80;71.20
32600;DHT22;19277;51.778;7.912;2023-06-10T14:01:33;24.70;71.30
32600;DHT22;19277;51.778;7.912;2023-06-10T14:03:59;24.80;71.40
32600;DHT22;19277;51.778;7.912;2023-06-10T14:06:26;24.80;71.50
32600;DHT22;19277;51.778;7.912;2023-06-10T14:08:52;24.80;71.40
32600;DHT22;19277;51.778;7.912;2023-06-10T14:11:20;24.80;71.50
32600;DHT22;19277;51.778;7.912;2023-06-10T14:13:46;24.80;71.50
32600;DHT22;19277;51.778;7.912;2023-06-10T14:16:12;24.80;71.50
32600;DHT22;19277;51.778;7.912;2023-06-10T14:18:37;24.80;71.30
32600;DHT22;19277;51.778;7.912;2023-06-10T14:21:03;24.80;71.10
32600;DHT22;19277;51.778;7.912;2023-06-10T14:23:28;24.80;71.20
32600;DHT22;19277;51.778;7.912;2023-06-10T14:25:54;24.80;71.20
32600;DHT22;19277;51.778;7.912;2023-06-10T14:28:19;24.80;71.10
32600;DHT22;19277;51.778;7.912;2023-06-10T14:30:45;24.90;70.70
32600;DHT22;19277;51.778;7.912;2023-06-10T14:33:10;24.90;71.00
32600;DHT22;19277;51.778;7.912;2023-06-10T14:35:36;24.90;71.00
32600;DHT22;19277;51.778;7.912;2023-06-10T14:38:02;24.90;70.90
32600;DHT22;19277;51.778;7.912;2023-06-10T14:40:27;24.90;70.80
32600;DHT22;19277;51.778;7.912;2023-06-10T14:42:55;24.90;70.80
32600;DHT22;19277;51.778;7.912;2023-06-10T14:45:20;24.90;70.60
32600;DHT22;19277;51.778;7.912;2023-06-10T14:47:46;24.90;71.30
32600;DHT22;19277;51.778;7.912;2023-06-10T14:50:12;24.90;70.80
32600;DHT22;19277;51.778;7.912;2023-06-10T14:52:38;24.90;70.80
32600;DHT22;19277;51.778;7.912;2023-06-10T14:55:04;24.90;70.70
32600;DHT22;19277;51.778;7.912;2023-06-10T14:57:30;24.90;70.80
32600;DHT22;19277;51.778;7.912;2023-06-10T14:59:55;24.90;70.70
32600;DHT22;19277;51.778;7.912;2023-06-10T15:02:22;24.90;70.60
32600;DHT22;19277;51.778;7.912;2023-06-10T15:04:48;24.90;70.60
32600;DHT22;19277;51.778;7.912;2023-06-10T15:07:14;24.90;70.60
32600;DHT22;19277;51.778;7.912;2023-06-10T15:09:41;24.90;70.50
32600;DHT22;19277;51.778;7.912;2023-06-10T15:12:07;24.90;70.50
32600;DHT22;19277;51.778;7.912;2023-06-10T15:14:33;24.90;70.30
32600;DHT22;19277;51.778;7.912;2023-06-10T15:16:59;24.90;70.50
32600;DHT22;19277;51.778;7.912;2023-06-10T15:19:26;24.90;70.30
32600;DHT22;19277;51.778;7.912;2023-06-10T15:21:51;24.90;70.40
32600;DHT22;19277;51.778;7.912;2023-06-10T15:24:17;24.90;70.30
32600;DHT22;19277;51.778;7.912;2023-06-10T15:26:43;24.90;70.30
32600;DHT22;19277;51.778;7.912;2023-06-10T15:29:09;24.90;70.30
32600;DHT22;19277;51.778;7.912;2023-06-10T15:31:35;24.90;70.30
32600;DHT22;19277;51.778;7.912;2023-06-10T15:34:00;24.90;70.20
32600;DHT22;19277;51.778;7.912;2023-06-10T15:36:26;24.90;70.20
32600;DHT22;19277;51.778;7.912;2023-06-10T15:38:53;24.90;70.10
32600;DHT22;19277;51.778;7.912;2023-06-10T15:41:19;25.00;70.20
32600;DHT22;19277;51.778;7.912;2023-06-10T15:43:45;24.90;70.10
32600;DHT22;19277;51.778;7.912;2023-06-10T15:46:11;24.90;70.00